sensor_id;sensor_type;location;lat;lon;timestamp;P1;durP1;ratioP1;P2;durP2;ratioP2
26536;SDS011;14204;51.262;5.488;2022-08-19T00:01:37;35.63;;;31.83;;
26536;SDS011;14204;51.262;5.488;2022-08-19T00:04:05;39.03;;;35.17;;
26536;SDS011;14204;51.262;5.488;2022-08-19T00:06:33;37.75;;;33.78;;
26536;SDS011;14204;51.262;5.488;2022-08-19T00:09:01;38.67;;;34.90;;
26536;SDS011;14204;51.262;5.488;2022-08-19T00:11:28;37.63;;;33.88;;
26536;SDS011;14204;51.262;5.488;2022-08-19T00:13:55;37.63;;;34.03;;
26536;SDS011;14204;51.262;5.488;2022-08-19T00:16:21;38.75;;;34.72;;
26536;SDS011;14204;51.262;5.488;2022-08-19T00:18:48;37.45;;;33.67;;
26536;SDS011;14204;51.262;5.488;2022-08-19T00:21:15;37.50;;;33.67;;
26536;SDS011;14204;51.262;5.488;2022-08-19T00:23:41;33.70;;;30.30;;
26536;SDS011;14204;51.262;5.488;2022-08-19T00:26:07;36.08;;;32.40;;
26536;SDS011;14204;51.262;5.488;2022-08-19T00:28:34;37.85;;;34.10;;
26536;SDS011;14204;51.262;5.488;2022-08-19T00:31:01;35.70;;;32.17;;
26536;SDS011;14204;51.262;5.488;2022-08-19T00:33:29;38.35;;;34.35;;
26536;SDS011;14204;51.262;5.488;2022-08-19T00:36:01;34.28;;;30.58;;
26536;SDS011;14204;51.262;5.488;2022-08-19T00:38:29;34.85;;;31.48;;
26536;SDS011;14204;51.262;5.488;2022-08-19T00:40:55;34.33;;;29.58;;
26536;SDS011;14204;51.262;5.488;2022-08-19T00:43:22;33.85;;;30.25;;
26536;SDS011;14204;51.262;5.488;2022-08-19T00:45:50;33.70;;;30.27;;
26536;SDS011;14204;51.262;5.488;2022-08-19T00:48:16;33.47;;;30.23;;
26536;SDS011;14204;51.262;5.488;2022-08-19T00:50:43;32.75;;;29.55;;
26536;SDS011;14204;51.262;5.488;2022-08-19T00:53:11;35.08;;;31.52;;
26536;SDS011;14204;51.262;5.488;2022-08-19T00:55:40;32.42;;;28.98;;
26536;SDS011;14204;51.262;5.488;2022-08-19T00:58:10;33.90;;;30.02;;
26536;SDS011;14204;51.262;5.488;2022-08-19T01:00:39;34.35;;;30.90;;
26536;SDS011;14204;51.262;5.488;2022-08-19T01:03:09;36.03;;;32.17;;
26536;SDS011;14204;51.262;5.488;2022-08-19T01:05:37;33.60;;;29.95;;
26536;SDS011;14204;51.262;5.488;2022-08-19T01:08:06;36.28;;;32.47;;
26536;SDS011;14204;51.262;5.488;2022-08-19T01:10:33;39.60;;;34.67;;
26536;SDS011;14204;51.262;5.488;2022-08-19T01:13:13;40.33;;;35.90;;
26536;SDS011;14204;51.262;5.488;2022-08-19T01:15:46;37.00;;;33.10;;
26536;SDS011;14204;51.262;5.488;2022-08-19T01:18:21;37.88;;;33.80;;
26536;SDS011;14204;51.262;5.488;2022-08-19T01:20:48;38.10;;;33.08;;
26536;SDS011;14204;51.262;5.488;2022-08-19T01:23:15;32.15;;;28.33;;
26536;SDS011;14204;51.262;5.488;2022-08-19T01:25:43;34.65;;;30.95;;
26536;SDS011;14204;51.262;5.488;2022-08-19T01:28:29;35.92;;;31.80;;
26536;SDS011;14204;51.262;5.488;2022-08-19T01:30:54;34.13;;;30.27;;
26536;SDS011;14204;51.262;5.488;2022-08-19T01:33:20;39.78;;;33.13;;
26536;SDS011;14204;51.262;5.488;2022-08-19T01:35:46;36.05;;;32.20;;
26536;SDS011;14204;51.262;5.488;2022-08-19T01:38:25;36.88;;;31.13;;
26536;SDS011;14204;51.262;5.488;2022-08-19T01:40:53;34.65;;;30.52;;
26536;SDS011;14204;51.262;5.488;2022-08-19T01:43:18;39.42;;;31.23;;
26536;SDS011;14204;51.262;5.488;2022-08-19T01:45:45;32.97;;;29.38;;
26536;SDS011;14204;51.262;5.488;2022-08-19T01:48:12;32.67;;;29.17;;
26536;SDS011;14204;51.262;5.488;2022-08-19T01:50:38;37.85;;;31.38;;
26536;SDS011;14204;51.262;5.488;2022-08-19T01:53:05;35.20;;;31.42;;
26536;SDS011;14204;51.262;5.488;2022-08-19T01:55:36;34.58;;;29.05;;
26536;SDS011;14204;51.262;5.488;2022-08-19T01:58:03;31.58;;;28.17;;
26536;SDS011;14204;51.262;5.488;2022-08-19T02:00:32;34.10;;;27.65;;
26536;SDS011;14204;51.262;5.488;2022-08-19T02:02:57;37.35;;;30.45;;
26536;SDS011;14204;51.262;5.488;2022-08-19T02:05:23;33.55;;;29.92;;
26536;SDS011;14204;51.262;5.488;2022-08-19T02:07:49;36.55;;;30.48;;
26536;SDS011;14204;51.262;5.488;2022-08-19T02:10:20;39.63;;;33.05;;
26536;SDS011;14204;51.262;5.488;2022-08-19T02:12:47;39.97;;;34.20;;
26536;SDS011;14204;51.262;5.488;2022-08-19T02:15:14;38.75;;;33.50;;
26536;SDS011;14204;51.262;5.488;2022-08-19T02:17:41;39.88;;;32.15;;
26536;SDS011;14204;51.262;5.488;2022-08-19T02:20:07;43.42;;;34.47;;
26536;SDS011;14204;51.262;5.488;2022-08-19T02:22:33;41.33;;;33.60;;
26536;SDS011;14204;51.262;5.488;2022-08-19T02:25:00;39.92;;;34.08;;
26536;SDS011;14204;51.262;5.488;2022-08-19T02:27:26;40.83;;;33.30;;
26536;SDS011;14204;51.262;5.488;2022-08-19T02:29:52;40.58;;;33.03;;
26536;SDS011;14204;51.262;5.488;2022-08-19T02:32:18;41.88;;;33.75;;
26536;SDS011;14204;51.262;5.488;2022-08-19T02:34:45;44.08;;;33.67;;
26536;SDS011;14204;51.262;5.488;2022-08-19T02:37:11;42.60;;;31.92;;
26536;SDS011;14204;51.262;5.488;2022-08-19T02:39:56;43.03;;;32.85;;
26536;SDS011;14204;51.262;5.488;2022-08-19T02:42:22;42.22;;;33.90;;
26536;SDS011;14204;51.262;5.488;2022-08-19T02:44:48;39.17;;;32.17;;
26536;SDS011;14204;51.262;5.488;2022-08-19T02:47:14;39.10;;;32.92;;
26536;SDS011;14204;51.262;5.488;2022-08-19T02:49:40;37.08;;;31.25;;
26536;SDS011;14204;51.262;5.488;2022-08-19T02:52:06;42.00;;;32.33;;
26536;SDS011;14204;51.262;5.488;2022-08-19T02:54:32;38.72;;;31.77;;
26536;SDS011;14204;51.262;5.488;2022-08-19T02:56:57;39.83;;;33.83;;
26536;SDS011;14204;51.262;5.488;2022-08-19T02:59:23;35.90;;;31.52;;
26536;SDS011;14204;51.262;5.488;2022-08-19T03:01:51;41.25;;;31.50;;
26536;SDS011;14204;51.262;5.488;2022-08-19T03:04:17;37.92;;;31.95;;
26536;SDS011;14204;51.262;5.488;2022-08-19T03:06:45;40.85;;;33.45;;
26536;SDS011;14204;51.262;5.488;2022-08-19T03:09:12;40.63;;;32.05;;
26536;SDS011;14204;51.262;5.488;2022-08-19T03:11:38;39.05;;;31.95;;
26536;SDS011;14204;51.262;5.488;2022-08-19T03:14:04;41.08;;;32.85;;
26536;SDS011;14204;51.262;5.488;2022-08-19T03:16:32;41.13;;;32.63;;
26536;SDS011;14204;51.262;5.488;2022-08-19T03:19:00;54.70;;;40.20;;
26536;SDS011;14204;51.262;5.488;2022-08-19T03:21:29;51.40;;;38.92;;
26536;SDS011;14204;51.262;5.488;2022-08-19T03:23:57;50.35;;;36.10;;
26536;SDS011;14204;51.262;5.488;2022-08-19T03:26:24;47.03;;;36.47;;
26536;SDS011;14204;51.262;5.488;2022-08-19T03:28:50;52.25;;;38.83;;
26536;SDS011;14204;51.262;5.488;2022-08-19T03:31:17;46.75;;;36.03;;
26536;SDS011;14204;51.262;5.488;2022-08-19T03:33:45;55.30;;;39.38;;
26536;SDS011;14204;51.262;5.488;2022-08-19T03:36:15;65.72;;;41.50;;
26536;SDS011;14204;51.262;5.488;2022-08-19T03:38:48;58.15;;;42.08;;
26536;SDS011;14204;51.262;5.488;2022-08-19T03:41:20;64.03;;;42.20;;
26536;SDS011;14204;51.262;5.488;2022-08-19T03:43:48;61.90;;;43.87;;
26536;SDS011;14204;51.262;5.488;2022-08-19T03:46:18;61.58;;;43.28;;
26536;SDS011;14204;51.262;5.488;2022-08-19T03:48:47;60.47;;;42.38;;
26536;SDS011;14204;51.262;5.488;2022-08-19T03:51:18;52.85;;;40.13;;
26536;SDS011;14204;51.262;5.488;2022-08-19T03:53:46;52.25;;;36.95;;
26536;SDS011;14204;51.262;5.488;2022-08-19T03:56:12;62.50;;;43.38;;
26536;SDS011;14204;51.262;5.488;2022-08-19T03:58:39;58.60;;;40.92;;
26536;SDS011;14204;51.262;5.488;2022-08-19T04:01:09;63.03;;;44.35;;
26536;SDS011;14204;51.262;5.488;2022-08-19T04:03:38;61.72;;;43.13;;
26536;SDS011;14204;51.262;5.488;2022-08-19T04:06:14;65.10;;;42.55;;
26536;SDS011;14204;51.262;5.488;2022-08-19T04:08:43;63.80;;;41.25;;
26536;SDS011;14204;51.262;5.488;2022-08-19T04:11:11;57.95;;;40.17;;
26536;SDS011;14204;51.262;5.488;2022-08-19T04:13:42;63.45;;;43.97;;
26536;SDS011;14204;51.262;5.488;2022-08-19T04:16:10;65.30;;;42.97;;
26536;SDS011;14204;51.262;5.488;2022-08-19T04:18:37;62.35;;;41.10;;
26536;SDS011;14204;51.262;5.488;2022-08-19T04:21:04;70.82;;;45.25;;
26536;SDS011;14204;51.262;5.488;2022-08-19T04:23:31;67.00;;;46.10;;
26536;SDS011;14204;51.262;5.488;2022-08-19T04:25:57;70.32;;;46.95;;
26536;SDS011;14204;51.262;5.488;2022-08-19T04:28:23;61.25;;;40.55;;
26536;SDS011;14204;51.262;5.488;2022-08-19T04:30:50;66.85;;;44.60;;
26536;SDS011;14204;51.262;5.488;2022-08-19T04:33:20;67.38;;;43.25;;
26536;SDS011;14204;51.262;5.488;2022-08-19T04:35:48;67.57;;;44.85;;
26536;SDS011;14204;51.262;5.488;2022-08-19T04:38:17;72.65;;;47.47;;
26536;SDS011;14204;51.262;5.488;2022-08-19T04:40:47;74.25;;;46.08;;
26536;SDS011;14204;51.262;5.488;2022-08-19T04:43:33;68.00;;;44.85;;
26536;SDS011;14204;51.262;5.488;2022-08-19T04:46:06;71.05;;;46.95;;
26536;SDS011;14204;51.262;5.488;2022-08-19T04:48:34;69.45;;;45.70;;
26536;SDS011;14204;51.262;5.488;2022-08-19T04:51:00;66.22;;;44.70;;
26536;SDS011;14204;51.262;5.488;2022-08-19T04:53:30;70.65;;;47.28;;
26536;SDS011;14204;51.262;5.488;2022-08-19T04:55:58;67.45;;;46.13;;
26536;SDS011;14204;51.262;5.488;2022-08-19T04:58:26;63.60;;;42.10;;
26536;SDS011;14204;51.262;5.488;2022-08-19T05:00:53;64.80;;;44.40;;
26536;SDS011;14204;51.262;5.488;2022-08-19T05:03:19;69.75;;;47.45;;
26536;SDS011;14204;51.262;5.488;2022-08-19T05:05:46;70.95;;;47.22;;
26536;SDS011;14204;51.262;5.488;2022-08-19T05:08:16;70.97;;;46.33;;
26536;SDS011;14204;51.262;5.488;2022-08-19T05:10:48;91.28;;;55.10;;
26536;SDS011;14204;51.262;5.488;2022-08-19T05:13:16;82.15;;;50.90;;
26536;SDS011;14204;51.262;5.488;2022-08-19T05:15:44;87.70;;;51.08;;
26536;SDS011;14204;51.262;5.488;2022-08-19T05:18:18;83.13;;;51.08;;
26536;SDS011;14204;51.262;5.488;2022-08-19T05:21:05;84.03;;;48.80;;
26536;SDS011;14204;51.262;5.488;2022-08-19T05:23:54;78.13;;;48.55;;
26536;SDS011;14204;51.262;5.488;2022-08-19T05:26:20;77.95;;;48.00;;
26536;SDS011;14204;51.262;5.488;2022-08-19T05:28:46;77.85;;;47.72;;
26536;SDS011;14204;51.262;5.488;2022-08-19T05:31:12;76.68;;;47.22;;
26536;SDS011;14204;51.262;5.488;2022-08-19T05:33:38;80.63;;;50.33;;
26536;SDS011;14204;51.262;5.488;2022-08-19T05:36:04;83.05;;;49.17;;
26536;SDS011;14204;51.262;5.488;2022-08-19T05:38:32;89.63;;;52.47;;
26536;SDS011;14204;51.262;5.488;2022-08-19T05:41:00;91.07;;;51.65;;
26536;SDS011;14204;51.262;5.488;2022-08-19T05:43:30;86.30;;;51.85;;
26536;SDS011;14204;51.262;5.488;2022-08-19T05:45:56;82.53;;;50.58;;
26536;SDS011;14204;51.262;5.488;2022-08-19T05:48:21;96.65;;;53.42;;
26536;SDS011;14204;51.262;5.488;2022-08-19T05:50:47;88.68;;;52.55;;
26536;SDS011;14204;51.262;5.488;2022-08-19T05:53:15;87.65;;;51.78;;
26536;SDS011;14204;51.262;5.488;2022-08-19T05:55:42;89.18;;;52.35;;
26536;SDS011;14204;51.262;5.488;2022-08-19T05:58:07;89.15;;;52.97;;
26536;SDS011;14204;51.262;5.488;2022-08-19T06:00:34;90.72;;;51.15;;
26536;SDS011;14204;51.262;5.488;2022-08-19T06:03:00;96.30;;;52.13;;
26536;SDS011;14204;51.262;5.488;2022-08-19T06:05:29;91.97;;;53.13;;
26536;SDS011;14204;51.262;5.488;2022-08-19T06:07:55;87.85;;;51.65;;
26536;SDS011;14204;51.262;5.488;2022-08-19T06:10:21;93.88;;;51.47;;
26536;SDS011;14204;51.262;5.488;2022-08-19T06:12:47;86.90;;;49.28;;
26536;SDS011;14204;51.262;5.488;2022-08-19T06:15:13;82.97;;;47.40;;
26536;SDS011;14204;51.262;5.488;2022-08-19T06:17:39;94.97;;;50.25;;
26536;SDS011;14204;51.262;5.488;2022-08-19T06:20:07;84.38;;;47.08;;
26536;SDS011;14204;51.262;5.488;2022-08-19T06:22:42;92.63;;;49.07;;
26536;SDS011;14204;51.262;5.488;2022-08-19T06:25:14;81.57;;;45.80;;
26536;SDS011;14204;51.262;5.488;2022-08-19T06:27:40;71.45;;;43.83;;
26536;SDS011;14204;51.262;5.488;2022-08-19T06:30:07;75.45;;;44.42;;
26536;SDS011;14204;51.262;5.488;2022-08-19T06:32:34;76.72;;;45.30;;
26536;SDS011;14204;51.262;5.488;2022-08-19T06:35:00;81.80;;;44.13;;
26536;SDS011;14204;51.262;5.488;2022-08-19T06:37:25;83.43;;;47.50;;
26536;SDS011;14204;51.262;5.488;2022-08-19T06:39:51;80.78;;;45.03;;
26536;SDS011;14204;51.262;5.488;2022-08-19T06:42:17;79.25;;;44.38;;
26536;SDS011;14204;51.262;5.488;2022-08-19T06:44:44;76.00;;;44.08;;
26536;SDS011;14204;51.262;5.488;2022-08-19T06:47:15;70.65;;;40.63;;
26536;SDS011;14204;51.262;5.488;2022-08-19T06:49:44;72.22;;;38.80;;
26536;SDS011;14204;51.262;5.488;2022-08-19T06:52:10;70.57;;;41.75;;
26536;SDS011;14204;51.262;5.488;2022-08-19T06:54:37;79.20;;;42.92;;
26536;SDS011;14204;51.262;5.488;2022-08-19T06:57:04;73.35;;;42.53;;
26536;SDS011;14204;51.262;5.488;2022-08-19T06:59:32;72.97;;;40.40;;
26536;SDS011;14204;51.262;5.488;2022-08-19T07:01:59;69.45;;;43.50;;
26536;SDS011;14204;51.262;5.488;2022-08-19T07:04:28;67.18;;;40.17;;
26536;SDS011;14204;51.262;5.488;2022-08-19T07:07:01;66.35;;;39.25;;
26536;SDS011;14204;51.262;5.488;2022-08-19T07:09:33;66.28;;;40.15;;
26536;SDS011;14204;51.262;5.488;2022-08-19T07:12:02;60.50;;;36.10;;
26536;SDS011;14204;51.262;5.488;2022-08-19T07:14:28;70.40;;;39.10;;
26536;SDS011;14204;51.262;5.488;2022-08-19T07:16:55;61.00;;;36.08;;
26536;SDS011;14204;51.262;5.488;2022-08-19T07:19:22;60.90;;;34.90;;
26536;SDS011;14204;51.262;5.488;2022-08-19T07:21:52;60.28;;;36.88;;
26536;SDS011;14204;51.262;5.488;2022-08-19T07:24:18;58.05;;;34.35;;
26536;SDS011;14204;51.262;5.488;2022-08-19T07:26:49;54.45;;;33.88;;
26536;SDS011;14204;51.262;5.488;2022-08-19T07:29:15;50.03;;;33.47;;
26536;SDS011;14204;51.262;5.488;2022-08-19T07:31:41;58.90;;;34.05;;
26536;SDS011;14204;51.262;5.488;2022-08-19T07:34:08;60.45;;;35.20;;
26536;SDS011;14204;51.262;5.488;2022-08-19T07:36:38;52.80;;;34.72;;
26536;SDS011;14204;51.262;5.488;2022-08-19T07:39:07;53.03;;;33.10;;
26536;SDS011;14204;51.262;5.488;2022-08-19T07:44:04;54.55;;;29.95;;
26536;SDS011;14204;51.262;5.488;2022-08-19T07:46:33;48.33;;;31.35;;
26536;SDS011;14204;51.262;5.488;2022-08-19T07:49:00;51.67;;;30.58;;
26536;SDS011;14204;51.262;5.488;2022-08-19T07:51:27;47.33;;;30.73;;
26536;SDS011;14204;51.262;5.488;2022-08-19T07:53:53;48.45;;;29.48;;
26536;SDS011;14204;51.262;5.488;2022-08-19T07:56:19;44.80;;;30.02;;
26536;SDS011;14204;51.262;5.488;2022-08-19T07:58:47;50.20;;;29.80;;
26536;SDS011;14204;51.262;5.488;2022-08-19T08:01:21;45.28;;;30.17;;
26536;SDS011;14204;51.262;5.488;2022-08-19T08:03:49;48.35;;;29.92;;
26536;SDS011;14204;51.262;5.488;2022-08-19T08:06:35;45.53;;;28.80;;
26536;SDS011;14204;51.262;5.488;2022-08-19T08:09:22;42.95;;;28.58;;
26536;SDS011;14204;51.262;5.488;2022-08-19T08:11:52;41.97;;;29.65;;
26536;SDS011;14204;51.262;5.488;2022-08-19T08:16:54;42.60;;;28.48;;
26536;SDS011;14204;51.262;5.488;2022-08-19T08:19:21;43.42;;;28.83;;
26536;SDS011;14204;51.262;5.488;2022-08-19T08:21:49;41.38;;;29.60;;
26536;SDS011;14204;51.262;5.488;2022-08-19T08:24:15;43.17;;;29.60;;
26536;SDS011;14204;51.262;5.488;2022-08-19T08:26:42;42.53;;;28.77;;
26536;SDS011;14204;51.262;5.488;2022-08-19T08:29:09;36.20;;;28.23;;
26536;SDS011;14204;51.262;5.488;2022-08-19T08:31:37;36.55;;;27.35;;
26536;SDS011;14204;51.262;5.488;2022-08-19T08:34:07;36.13;;;27.27;;
26536;SDS011;14204;51.262;5.488;2022-08-19T08:36:36;40.38;;;28.25;;
26536;SDS011;14204;51.262;5.488;2022-08-19T08:39:07;37.28;;;28.30;;
26536;SDS011;14204;51.262;5.488;2022-08-19T08:44:23;33.10;;;25.85;;
26536;SDS011;14204;51.262;5.488;2022-08-19T08:47:11;33.92;;;25.98;;
26536;SDS011;14204;51.262;5.488;2022-08-19T08:49:45;35.25;;;24.10;;
26536;SDS011;14204;51.262;5.488;2022-08-19T08:52:21;31.45;;;24.25;;
26536;SDS011;14204;51.262;5.488;2022-08-19T08:54:55;25.63;;;21.08;;
26536;SDS011;14204;51.262;5.488;2022-08-19T09:00:37;23.95;;;19.02;;
26536;SDS011;14204;51.262;5.488;2022-08-19T09:03:16;24.13;;;19.23;;
26536;SDS011;14204;51.262;5.488;2022-08-19T09:06:03;24.77;;;18.10;;
26536;SDS011;14204;51.262;5.488;2022-08-19T09:11:03;16.92;;;12.10;;
26536;SDS011;14204;51.262;5.488;2022-08-19T09:16:38;15.23;;;10.50;;
26536;SDS011;14204;51.262;5.488;2022-08-19T09:19:05;24.98;;;16.08;;
26536;SDS011;14204;51.262;5.488;2022-08-19T09:21:32;19.58;;;12.90;;
26536;SDS011;14204;51.262;5.488;2022-08-19T09:23:59;15.10;;;11.20;;
26536;SDS011;14204;51.262;5.488;2022-08-19T09:26:26;11.80;;;10.27;;
26536;SDS011;14204;51.262;5.488;2022-08-19T09:28:52;18.08;;;10.70;;
26536;SDS011;14204;51.262;5.488;2022-08-19T09:31:21;11.45;;;8.38;;
26536;SDS011;14204;51.262;5.488;2022-08-19T09:33:48;14.32;;;9.50;;
26536;SDS011;14204;51.262;5.488;2022-08-19T09:36:15;17.30;;;9.57;;
26536;SDS011;14204;51.262;5.488;2022-08-19T09:38:43;12.98;;;7.85;;
26536;SDS011;14204;51.262;5.488;2022-08-19T09:41:13;11.48;;;7.53;;
26536;SDS011;14204;51.262;5.488;2022-08-19T09:43:41;9.73;;;7.22;;
26536;SDS011;14204;51.262;5.488;2022-08-19T09:46:10;12.98;;;7.38;;
26536;SDS011;14204;51.262;5.488;2022-08-19T09:48:36;10.52;;;8.02;;
26536;SDS011;14204;51.262;5.488;2022-08-19T09:51:13;15.05;;;8.02;;
26536;SDS011;14204;51.262;5.488;2022-08-19T09:53:40;13.48;;;7.85;;
26536;SDS011;14204;51.262;5.488;2022-08-19T09:56:08;12.50;;;7.25;;
26536;SDS011;14204;51.262;5.488;2022-08-19T09:58:34;10.40;;;6.45;;
26536;SDS011;14204;51.262;5.488;2022-08-19T10:01:01;13.10;;;6.75;;
26536;SDS011;14204;51.262;5.488;2022-08-19T10:03:28;13.25;;;7.10;;
26536;SDS011;14204;51.262;5.488;2022-08-19T10:05:54;11.35;;;7.03;;
26536;SDS011;14204;51.262;5.488;2022-08-19T10:08:22;11.05;;;7.35;;
26536;SDS011;14204;51.262;5.488;2022-08-19T10:10:50;9.27;;;7.57;;
26536;SDS011;14204;51.262;5.488;2022-08-19T10:13:17;10.48;;;6.88;;
26536;SDS011;14204;51.262;5.488;2022-08-19T10:15:48;7.57;;;6.37;;
26536;SDS011;14204;51.262;5.488;2022-08-19T10:18:18;9.77;;;6.50;;
26536;SDS011;14204;51.262;5.488;2022-08-19T10:20:46;8.10;;;6.35;;
26536;SDS011;14204;51.262;5.488;2022-08-19T10:23:13;10.38;;;6.85;;
26536;SDS011;14204;51.262;5.488;2022-08-19T10:25:40;12.90;;;8.25;;
26536;SDS011;14204;51.262;5.488;2022-08-19T10:28:07;13.38;;;8.77;;
26536;SDS011;14204;51.262;5.488;2022-08-19T10:30:36;9.18;;;7.80;;
26536;SDS011;14204;51.262;5.488;2022-08-19T10:33:02;15.02;;;8.48;;
26536;SDS011;14204;51.262;5.488;2022-08-19T10:35:29;9.25;;;7.35;;
26536;SDS011;14204;51.262;5.488;2022-08-19T10:37:55;11.15;;;8.70;;
26536;SDS011;14204;51.262;5.488;2022-08-19T10:40:24;11.45;;;8.15;;
26536;SDS011;14204;51.262;5.488;2022-08-19T10:42:51;8.85;;;7.95;;
26536;SDS011;14204;51.262;5.488;2022-08-19T10:45:18;12.13;;;8.90;;
26536;SDS011;14204;51.262;5.488;2022-08-19T10:47:43;11.13;;;8.63;;
26536;SDS011;14204;51.262;5.488;2022-08-19T10:50:09;16.75;;;8.15;;
26536;SDS011;14204;51.262;5.488;2022-08-19T10:52:54;14.82;;;8.48;;
26536;SDS011;14204;51.262;5.488;2022-08-19T10:55:21;13.25;;;9.27;;
26536;SDS011;14204;51.262;5.488;2022-08-19T10:58:10;13.38;;;8.73;;
26536;SDS011;14204;51.262;5.488;2022-08-19T11:00:37;10.93;;;8.10;;
26536;SDS011;14204;51.262;5.488;2022-08-19T11:03:03;11.32;;;8.73;;
26536;SDS011;14204;51.262;5.488;2022-08-19T11:05:29;9.80;;;8.05;;
26536;SDS011;14204;51.262;5.488;2022-08-19T11:07:55;10.27;;;9.15;;
26536;SDS011;14204;51.262;5.488;2022-08-19T11:10:21;10.07;;;8.32;;
26536;SDS011;14204;51.262;5.488;2022-08-19T11:12:46;10.95;;;8.95;;
26536;SDS011;14204;51.262;5.488;2022-08-19T11:15:12;9.43;;;7.78;;
26536;SDS011;14204;51.262;5.488;2022-08-19T11:17:38;9.27;;;7.70;;
26536;SDS011;14204;51.262;5.488;2022-08-19T11:20:06;15.68;;;8.40;;
26536;SDS011;14204;51.262;5.488;2022-08-19T11:22:32;11.60;;;8.43;;
26536;SDS011;14204;51.262;5.488;2022-08-19T11:24:59;8.63;;;7.70;;
26536;SDS011;14204;51.262;5.488;2022-08-19T11:27:24;12.00;;;6.78;;
26536;SDS011;14204;51.262;5.488;2022-08-19T11:29:50;8.00;;;6.47;;
26536;SDS011;14204;51.262;5.488;2022-08-19T11:32:17;10.43;;;8.02;;
26536;SDS011;14204;51.262;5.488;2022-08-19T11:34:43;12.90;;;8.40;;
26536;SDS011;14204;51.262;5.488;2022-08-19T11:37:09;10.25;;;8.25;;
26536;SDS011;14204;51.262;5.488;2022-08-19T11:39:35;14.13;;;8.43;;
26536;SDS011;14204;51.262;5.488;2022-08-19T11:42:02;9.43;;;6.90;;
26536;SDS011;14204;51.262;5.488;2022-08-19T11:44:49;9.73;;;8.18;;
26536;SDS011;14204;51.262;5.488;2022-08-19T11:47:16;11.52;;;9.63;;
26536;SDS011;14204;51.262;5.488;2022-08-19T11:49:41;11.30;;;10.13;;
26536;SDS011;14204;51.262;5.488;2022-08-19T11:52:07;14.70;;;10.60;;
26536;SDS011;14204;51.262;5.488;2022-08-19T11:54:34;14.18;;;11.32;;
26536;SDS011;14204;51.262;5.488;2022-08-19T11:57:00;16.45;;;12.65;;
26536;SDS011;14204;51.262;5.488;2022-08-19T11:59:28;15.40;;;11.40;;
26536;SDS011;14204;51.262;5.488;2022-08-19T12:01:54;14.82;;;11.13;;
26536;SDS011;14204;51.262;5.488;2022-08-19T12:04:20;16.17;;;11.40;;
26536;SDS011;14204;51.262;5.488;2022-08-19T12:06:46;15.00;;;11.88;;
26536;SDS011;14204;51.262;5.488;2022-08-19T12:09:12;15.32;;;12.45;;
26536;SDS011;14204;51.262;5.488;2022-08-19T12:11:39;15.70;;;11.18;;
26536;SDS011;14204;51.262;5.488;2022-08-19T12:14:06;14.45;;;11.30;;
26536;SDS011;14204;51.262;5.488;2022-08-19T12:16:34;52.38;;;14.68;;
26536;SDS011;14204;51.262;5.488;2022-08-19T12:19:00;15.73;;;11.30;;
26536;SDS011;14204;51.262;5.488;2022-08-19T12:21:29;13.45;;;9.38;;
26536;SDS011;14204;51.262;5.488;2022-08-19T12:23:57;14.30;;;9.82;;
26536;SDS011;14204;51.262;5.488;2022-08-19T12:26:24;11.75;;;9.15;;
26536;SDS011;14204;51.262;5.488;2022-08-19T12:28:51;12.65;;;9.43;;
26536;SDS011;14204;51.262;5.488;2022-08-19T12:31:17;12.65;;;8.95;;
26536;SDS011;14204;51.262;5.488;2022-08-19T12:33:45;11.65;;;8.82;;
26536;SDS011;14204;51.262;5.488;2022-08-19T12:36:12;11.75;;;7.80;;
26536;SDS011;14204;51.262;5.488;2022-08-19T12:38:40;11.55;;;7.60;;
26536;SDS011;14204;51.262;5.488;2022-08-19T12:41:06;9.93;;;7.57;;
26536;SDS011;14204;51.262;5.488;2022-08-19T12:43:34;9.65;;;6.70;;
26536;SDS011;14204;51.262;5.488;2022-08-19T12:46:00;9.38;;;6.97;;
26536;SDS011;14204;51.262;5.488;2022-08-19T12:48:26;8.40;;;6.95;;
26536;SDS011;14204;51.262;5.488;2022-08-19T12:50:52;9.60;;;6.75;;
26536;SDS011;14204;51.262;5.488;2022-08-19T12:53:19;10.68;;;6.63;;
26536;SDS011;14204;51.262;5.488;2022-08-19T12:55:45;7.72;;;6.47;;
26536;SDS011;14204;51.262;5.488;2022-08-19T12:58:10;7.88;;;6.63;;
26536;SDS011;14204;51.262;5.488;2022-08-19T13:00:37;9.00;;;6.07;;
26536;SDS011;14204;51.262;5.488;2022-08-19T13:03:03;9.35;;;6.63;;
26536;SDS011;14204;51.262;5.488;2022-08-19T13:05:30;6.57;;;5.93;;
26536;SDS011;14204;51.262;5.488;2022-08-19T13:07:58;8.15;;;5.07;;
26536;SDS011;14204;51.262;5.488;2022-08-19T13:10:26;4.88;;;4.38;;
26536;SDS011;14204;51.262;5.488;2022-08-19T13:12:59;5.15;;;4.60;;
26536;SDS011;14204;51.262;5.488;2022-08-19T13:15:26;6.53;;;4.47;;
26536;SDS011;14204;51.262;5.488;2022-08-19T13:17:53;6.38;;;4.78;;
26536;SDS011;14204;51.262;5.488;2022-08-19T13:20:21;5.45;;;4.30;;
26536;SDS011;14204;51.262;5.488;2022-08-19T13:22:47;5.60;;;4.13;;
26536;SDS011;14204;51.262;5.488;2022-08-19T13:25:13;6.82;;;4.60;;
26536;SDS011;14204;51.262;5.488;2022-08-19T13:27:42;6.00;;;4.07;;
26536;SDS011;14204;51.262;5.488;2022-08-19T13:30:09;7.53;;;4.15;;
26536;SDS011;14204;51.262;5.488;2022-08-19T13:32:55;5.07;;;4.53;;
26536;SDS011;14204;51.262;5.488;2022-08-19T13:35:56;5.55;;;4.03;;
26536;SDS011;14204;51.262;5.488;2022-08-19T13:38:23;4.82;;;4.32;;
26536;SDS011;14204;51.262;5.488;2022-08-19T13:40:49;5.40;;;4.40;;
26536;SDS011;14204;51.262;5.488;2022-08-19T13:43:17;5.05;;;4.55;;
26536;SDS011;14204;51.262;5.488;2022-08-19T13:45:45;6.60;;;4.60;;
26536;SDS011;14204;51.262;5.488;2022-08-19T13:48:11;7.05;;;4.47;;
26536;SDS011;14204;51.262;5.488;2022-08-19T13:50:41;5.15;;;4.15;;
26536;SDS011;14204;51.262;5.488;2022-08-19T13:55:39;7.05;;;4.90;;
26536;SDS011;14204;51.262;5.488;2022-08-19T13:58:05;5.05;;;4.55;;
26536;SDS011;14204;51.262;5.488;2022-08-19T14:00:33;5.20;;;4.70;;
26536;SDS011;14204;51.262;5.488;2022-08-19T14:03:01;6.65;;;5.22;;
26536;SDS011;14204;51.262;5.488;2022-08-19T14:05:28;5.75;;;4.60;;
26536;SDS011;14204;51.262;5.488;2022-08-19T14:07:55;8.07;;;4.32;;
26536;SDS011;14204;51.262;5.488;2022-08-19T14:10:21;6.15;;;4.57;;
26536;SDS011;14204;51.262;5.488;2022-08-19T14:12:48;6.15;;;4.60;;
26536;SDS011;14204;51.262;5.488;2022-08-19T14:15:17;5.82;;;5.22;;
26536;SDS011;14204;51.262;5.488;2022-08-19T14:17:43;6.85;;;5.18;;
26536;SDS011;14204;51.262;5.488;2022-08-19T14:20:11;9.15;;;6.00;;
26536;SDS011;14204;51.262;5.488;2022-08-19T14:22:39;7.25;;;5.95;;
26536;SDS011;14204;51.262;5.488;2022-08-19T14:25:06;8.00;;;6.03;;
26536;SDS011;14204;51.262;5.488;2022-08-19T14:27:38;5.32;;;4.82;;
26536;SDS011;14204;51.262;5.488;2022-08-19T14:30:06;5.22;;;4.72;;
26536;SDS011;14204;51.262;5.488;2022-08-19T14:32:33;5.70;;;5.03;;
26536;SDS011;14204;51.262;5.488;2022-08-19T14:34:59;8.20;;;5.55;;
26536;SDS011;14204;51.262;5.488;2022-08-19T14:37:25;5.80;;;5.30;;
26536;SDS011;14204;51.262;5.488;2022-08-19T14:39:51;7.35;;;4.75;;
26536;SDS011;14204;51.262;5.488;2022-08-19T14:42:16;6.32;;;5.72;;
26536;SDS011;14204;51.262;5.488;2022-08-19T14:44:43;9.45;;;5.05;;
26536;SDS011;14204;51.262;5.488;2022-08-19T14:47:09;6.82;;;4.72;;
26536;SDS011;14204;51.262;5.488;2022-08-19T14:49:35;7.15;;;4.95;;
26536;SDS011;14204;51.262;5.488;2022-08-19T14:52:01;7.45;;;4.40;;
26536;SDS011;14204;51.262;5.488;2022-08-19T14:54:28;5.38;;;4.93;;